Pagina principale
METAR-TAF:

METAR-TAF

Aeroporti :

Parsabad, Iran

latitudine: 39-36-13N, longitudine: 47-52-53E, altezza: 77 m

Osservazione

Il bollettino è stato emesso 39 minuti fa, alle 22:00 UTC
Vento 6 kt da ovest
Temperature 11°C
Umidità 94%
Pressione 1018 hPa
Visibilità 10 km o più
nessuna nube inferiore a 1500 m e nessun cumulonembo

METAR: OITP 292200Z 28006KT CAVOK 11/10 Q1018

Ora: 02:09 (22:39 UTC)


TAF: mancante

Osservazioni e previsioni meteorologiche di più di 4000 aeroporti (messaggi METAR e TAF).

Le stazioni disponibili sono rappresentate dai dischi gialli e rossi sulla carta.

Puntare il mouse per vedere il nome della stazione.

Clicca sopra per visualizzare le osservazioni e previsioni meteorologiche.

Per cambiare la mappa : fare clic sui pulsanti verdi con una croce nera per ingrandire, il pulsante verde con un trattino per diminuire, o sulla freccia verde per le mappe adiacenti.


METAR-TAF: